createdAt,value
2023-06-23T00:00:32.298Z,6.47
2023-06-23T00:03:04.204Z,5.05
2023-06-23T00:05:31.781Z,6.30
2023-06-23T00:07:59.383Z,5.82
2023-06-23T00:10:26.788Z,4.53
2023-06-23T00:12:54.234Z,3.60
2023-06-23T00:15:23.489Z,4.68
2023-06-23T00:17:51.737Z,7.57
2023-06-23T00:20:20.419Z,3.78
2023-06-23T00:22:47.687Z,3.55
2023-06-23T00:25:15.034Z,4.40
2023-06-23T00:27:46.526Z,9.25
2023-06-23T00:30:14.818Z,4.40
2023-06-23T00:32:43.123Z,7.40
2023-06-23T00:35:10.986Z,8.82
2023-06-23T00:37:39.093Z,6.55
2023-06-23T00:40:13.535Z,5.15
2023-06-23T00:42:47.721Z,4.78
2023-06-23T00:45:15.564Z,4.38
2023-06-23T00:47:44.641Z,3.00
2023-06-23T00:50:18.294Z,6.05
2023-06-23T00:52:52.983Z,4.47
2023-06-23T00:55:23.169Z,6.57
2023-06-23T00:57:52.343Z,6.43
2023-06-23T01:00:21.531Z,7.72
2023-06-23T01:02:54.547Z,3.33
2023-06-23T01:05:39.003Z,3.83
2023-06-23T01:08:09.461Z,4.35
2023-06-23T01:10:48.588Z,7.50
2023-06-23T01:13:34.942Z,7.50
2023-06-23T01:16:39.039Z,4.65
2023-06-23T01:19:11.973Z,6.30
2023-06-23T01:22:04.250Z,9.90
2023-06-23T01:24:53.202Z,6.15
2023-06-23T01:27:42.112Z,4.03
2023-06-23T01:30:13.678Z,5.03
2023-06-23T01:32:55.967Z,4.28
2023-06-23T01:35:30.457Z,2.97
2023-06-23T01:38:12.771Z,4.78
2023-06-23T01:40:43.203Z,3.17
2023-06-23T01:43:15.184Z,5.20
2023-06-23T01:45:42.963Z,7.55
2023-06-23T01:48:13.011Z,3.38
2023-06-23T01:50:41.593Z,4.10
2023-06-23T01:53:10.795Z,6.90
2023-06-23T01:55:40.398Z,4.20
2023-06-23T01:58:09.121Z,9.13
2023-06-23T02:00:37.860Z,5.63
2023-06-23T02:03:06.688Z,6.60
2023-06-23T02:05:36.692Z,8.75
2023-06-23T02:08:07.055Z,3.85
2023-06-23T02:10:35.989Z,6.07
2023-06-23T02:13:04.463Z,4.15
2023-06-23T02:15:32.643Z,4.30
2023-06-23T02:18:02.135Z,5.97
2023-06-23T02:20:31.857Z,5.20
2023-06-23T02:23:00.693Z,5.40
2023-06-23T02:25:30.287Z,5.82
2023-06-23T02:27:58.249Z,4.90
2023-06-23T02:30:26.711Z,4.28
2023-06-23T02:32:54.287Z,4.75
2023-06-23T02:35:21.811Z,8.07
2023-06-23T02:38:00.600Z,7.43
2023-06-23T02:40:30.829Z,7.05
2023-06-23T02:43:12.743Z,5.32
2023-06-23T02:45:43.755Z,7.43
2023-06-23T02:48:20.216Z,7.38
2023-06-23T02:50:50.246Z,6.60
2023-06-23T02:53:26.738Z,7.43
2023-06-23T02:56:14.210Z,14.32
2023-06-23T02:58:41.402Z,6.97
2023-06-23T03:01:10.612Z,6.82
2023-06-23T03:03:39.570Z,4.85
2023-06-23T03:06:07.230Z,5.63
2023-06-23T03:08:34.370Z,4.40
2023-06-23T03:11:02.821Z,7.78
2023-06-23T03:13:29.940Z,7.38
2023-06-23T03:16:02.412Z,6.13
2023-06-23T03:18:33.858Z,6.03
2023-06-23T03:21:05.004Z,6.20
2023-06-23T03:23:37.071Z,6.75
2023-06-23T03:26:07.368Z,5.90
2023-06-23T03:28:37.667Z,6.00
2023-06-23T03:33:43.714Z,5.82
2023-06-23T03:36:26.317Z,5.32
2023-06-23T03:39:10.155Z,7.43
2023-06-23T03:41:42.210Z,4.55
2023-06-23T03:46:53.342Z,5.68
2023-06-23T03:49:24.244Z,8.18
2023-06-23T03:51:53.755Z,6.72
2023-06-23T03:54:22.069Z,5.72
2023-06-23T03:56:51.346Z,5.18
2023-06-23T03:59:19.990Z,6.10
2023-06-23T04:01:49.475Z,4.93
2023-06-23T04:04:21.073Z,6.90
2023-06-23T04:06:49.944Z,6.68
2023-06-23T04:09:19.911Z,5.78
2023-06-23T04:11:49.957Z,5.97
2023-06-23T04:14:19.506Z,6.72
2023-06-23T04:16:49.524Z,9.18
2023-06-23T04:19:18.069Z,8.57
2023-06-23T04:21:45.809Z,10.32
2023-06-23T04:24:15.918Z,6.93
2023-06-23T04:26:45.311Z,8.77
2023-06-23T04:29:13.908Z,6.60
2023-06-23T04:31:43.072Z,7.97
2023-06-23T04:34:10.154Z,5.68
2023-06-23T04:36:45.646Z,7.60
2023-06-23T04:39:20.792Z,7.32
2023-06-23T04:41:52.469Z,7.47
2023-06-23T04:44:20.857Z,6.85
2023-06-23T04:46:50.246Z,10.43
2023-06-23T04:49:21.231Z,8.83
2023-06-23T04:51:53.189Z,7.10
2023-06-23T04:54:26.471Z,6.45
2023-06-23T04:57:02.814Z,9.90
2023-06-23T04:59:35.147Z,7.72
2023-06-23T05:02:03.958Z,10.15
2023-06-23T05:04:35.111Z,7.47
2023-06-23T05:07:04.396Z,8.23
2023-06-23T05:09:34.286Z,11.27
2023-06-23T05:12:03.083Z,7.47
2023-06-23T05:14:32.363Z,7.68
2023-06-23T05:17:02.278Z,9.43
2023-06-23T05:19:31.650Z,11.48
2023-06-23T05:22:00.717Z,9.67
2023-06-23T05:24:30.130Z,10.55
2023-06-23T05:27:01.006Z,8.38
2023-06-23T05:29:29.842Z,9.63
2023-06-23T05:31:58.243Z,11.73
2023-06-23T05:34:26.445Z,10.32
2023-06-23T05:36:53.999Z,11.85
2023-06-23T05:39:24.792Z,10.80
2023-06-23T05:41:51.936Z,11.02
2023-06-23T05:44:19.223Z,10.93
2023-06-23T05:47:08.523Z,11.93
2023-06-23T05:49:41.603Z,11.82
2023-06-23T05:52:14.796Z,11.23
2023-06-23T05:54:45.884Z,9.10
2023-06-23T05:57:28.730Z,10.10
2023-06-23T06:00:06.178Z,12.48
2023-06-23T06:02:43.270Z,10.85
2023-06-23T06:05:15.352Z,11.07
2023-06-23T06:07:44.061Z,11.23
2023-06-23T06:10:12.729Z,11.63
2023-06-23T06:12:42.016Z,9.98
2023-06-23T06:15:11.264Z,11.15
2023-06-23T06:17:40.804Z,13.60
2023-06-23T06:20:09.790Z,10.98
2023-06-23T06:22:40.007Z,11.80
2023-06-23T06:27:36.462Z,11.32
2023-06-23T06:30:05.381Z,18.08
2023-06-23T06:32:39.020Z,10.35
2023-06-23T06:35:09.969Z,13.38
2023-06-23T06:37:43.078Z,12.57
2023-06-23T06:40:13.009Z,14.77
2023-06-23T06:42:40.330Z,12.05
2023-06-23T06:45:09.587Z,11.73
2023-06-23T06:47:44.547Z,11.68
2023-06-23T06:50:15.099Z,12.93
2023-06-23T06:52:45.508Z,15.40
2023-06-23T06:55:21.798Z,11.52
2023-06-23T06:57:49.696Z,10.73
2023-06-23T07:00:21.642Z,14.98
2023-06-23T07:02:49.739Z,10.77
2023-06-23T07:05:21.342Z,12.23
2023-06-23T07:07:48.694Z,11.60
2023-06-23T07:10:15.854Z,11.27
2023-06-23T07:12:42.993Z,11.43
2023-06-23T07:15:10.853Z,11.57
2023-06-23T07:17:40.390Z,13.48
2023-06-23T07:20:08.690Z,13.23
2023-06-23T07:22:36.099Z,12.75
2023-06-23T07:25:03.306Z,12.02
2023-06-23T07:27:31.604Z,10.48
2023-06-23T07:29:59.896Z,11.68
2023-06-23T07:32:27.958Z,11.57
2023-06-23T07:34:55.590Z,10.88
2023-06-23T07:37:23.464Z,11.55
2023-06-23T07:39:50.950Z,11.82
2023-06-23T07:42:18.174Z,11.95
2023-06-23T07:44:46.004Z,14.52
2023-06-23T07:47:15.304Z,12.63
2023-06-23T07:49:43.192Z,11.90
2023-06-23T07:52:12.414Z,14.55
2023-06-23T07:54:40.968Z,10.20
2023-06-23T07:57:09.828Z,13.93
2023-06-23T07:59:37.030Z,10.98
2023-06-23T08:02:05.166Z,11.23
2023-06-23T08:04:32.579Z,10.02
2023-06-23T08:07:00.243Z,11.40
2023-06-23T08:09:27.572Z,9.93
2023-06-23T08:11:54.682Z,11.95
2023-06-23T08:14:21.811Z,10.90
2023-06-23T08:16:49.426Z,11.15
2023-06-23T08:19:22.774Z,12.60
2023-06-23T08:21:50.836Z,11.80
2023-06-23T08:24:18.063Z,11.00
2023-06-23T08:26:46.300Z,12.70
2023-06-23T08:29:13.496Z,10.75
2023-06-23T08:31:40.667Z,10.75
2023-06-23T08:34:07.878Z,12.25
2023-06-23T08:36:34.974Z,11.65
2023-06-23T08:39:02.089Z,10.57
2023-06-23T08:41:30.783Z,10.85
2023-06-23T08:44:02.610Z,12.38
2023-06-23T08:46:44.413Z,11.60
2023-06-23T08:49:22.965Z,12.23
2023-06-23T08:51:54.580Z,12.50
2023-06-23T08:54:22.199Z,12.20
2023-06-23T08:56:49.545Z,11.57
2023-06-23T08:59:17.257Z,12.48
2023-06-23T09:01:44.671Z,11.82
2023-06-23T09:04:12.522Z,13.57
2023-06-23T09:06:39.740Z,12.93
2023-06-23T09:09:06.787Z,14.48
2023-06-23T09:11:34.331Z,15.10
2023-06-23T09:14:02.746Z,18.23
2023-06-23T09:16:30.851Z,19.00
2023-06-23T09:18:58.800Z,17.27
2023-06-23T09:21:26.870Z,15.10
2023-06-23T09:24:07.679Z,15.90
2023-06-23T09:26:52.783Z,16.85
2023-06-23T09:29:29.432Z,17.60
2023-06-23T09:31:57.077Z,19.23
2023-06-23T09:34:26.788Z,18.23
2023-06-23T09:37:05.518Z,21.75
2023-06-23T09:39:42.727Z,19.65
2023-06-23T09:42:14.437Z,24.23
2023-06-23T09:44:47.908Z,20.73
2023-06-23T09:47:19.296Z,19.63
2023-06-23T09:49:49.234Z,19.67
2023-06-23T09:52:24.387Z,18.70
2023-06-23T09:54:51.499Z,17.45
2023-06-23T09:57:20.649Z,18.02
2023-06-23T09:59:53.936Z,17.48
2023-06-23T10:02:33.076Z,16.40
2023-06-23T10:05:04.423Z,18.20
2023-06-23T10:07:37.206Z,16.38
2023-06-23T10:12:41.684Z,14.88
2023-06-23T10:17:37.826Z,16.83
2023-06-23T10:20:06.699Z,16.40
2023-06-23T10:22:35.916Z,17.77
2023-06-23T10:25:03.444Z,17.35
2023-06-23T10:27:34.601Z,18.30
2023-06-23T10:30:04.470Z,22.48
2023-06-23T10:32:36.103Z,20.98
2023-06-23T10:37:44.640Z,21.65
2023-06-23T10:40:19.774Z,16.27
2023-06-23T10:42:50.201Z,13.68
2023-06-23T10:47:47.317Z,12.95
2023-06-23T10:50:15.524Z,11.57
2023-06-23T10:52:43.774Z,14.18
2023-06-23T10:55:58.007Z,11.68
2023-06-23T10:58:30.153Z,10.85
2023-06-23T11:00:57.482Z,11.18
2023-06-23T11:03:35.344Z,9.90
2023-06-23T11:06:10.424Z,10.63
2023-06-23T11:08:45.842Z,10.57
2023-06-23T11:11:14.621Z,7.05
2023-06-23T11:13:43.581Z,8.82
2023-06-23T11:16:17.196Z,9.63
2023-06-23T11:18:53.631Z,7.90
2023-06-23T11:21:26.998Z,7.95
2023-06-23T11:24:15.024Z,10.02
2023-06-23T11:27:01.573Z,9.73
2023-06-23T11:29:29.325Z,11.82
2023-06-23T11:32:14.096Z,16.27
2023-06-23T11:34:53.470Z,10.88
2023-06-23T11:37:32.998Z,10.70
2023-06-23T11:40:02.206Z,11.50
2023-06-23T11:42:33.342Z,11.68
2023-06-23T11:45:01.312Z,13.20
2023-06-23T11:47:33.379Z,15.27
2023-06-23T11:50:08.233Z,12.52
2023-06-23T11:52:35.769Z,13.52
2023-06-23T11:55:05.218Z,11.27
2023-06-23T11:57:33.503Z,13.35
2023-06-23T12:00:01.009Z,13.23
2023-06-23T12:02:28.748Z,14.30
2023-06-23T12:04:57.560Z,11.55
2023-06-23T12:07:30.171Z,10.85
2023-06-23T12:09:58.621Z,11.82
2023-06-23T12:12:25.916Z,12.45
2023-06-23T12:15:00.607Z,12.27
2023-06-23T12:17:28.081Z,24.95
2023-06-23T12:19:55.997Z,12.25
2023-06-23T12:22:23.412Z,12.73
2023-06-23T12:24:51.021Z,11.75
2023-06-23T12:27:18.709Z,13.77
2023-06-23T12:29:45.761Z,10.57
2023-06-23T12:32:14.429Z,15.48
2023-06-23T12:34:50.302Z,15.57
2023-06-23T12:37:19.997Z,13.38
2023-06-23T12:39:54.563Z,15.40
2023-06-23T12:42:22.806Z,12.63
2023-06-23T12:44:51.031Z,10.50
2023-06-23T12:47:21.202Z,11.68
2023-06-23T12:49:49.320Z,12.70
2023-06-23T12:52:16.683Z,13.20
2023-06-23T12:54:45.352Z,10.48
2023-06-23T12:57:13.676Z,10.85
2023-06-23T12:59:42.364Z,9.90
2023-06-23T13:02:10.023Z,9.93
2023-06-23T13:04:37.276Z,11.15
2023-06-23T13:07:04.631Z,11.73
2023-06-23T13:09:31.884Z,13.20
2023-06-23T13:11:59.158Z,12.50
2023-06-23T13:14:27.258Z,11.38
2023-06-23T13:16:54.571Z,12.55
2023-06-23T13:19:21.719Z,10.80
2023-06-23T13:21:50.420Z,10.70
2023-06-23T13:24:17.486Z,12.13
2023-06-23T13:26:45.199Z,10.43
2023-06-23T13:29:13.322Z,9.77
2023-06-23T13:31:40.929Z,10.13
2023-06-23T13:34:08.045Z,11.35
2023-06-23T13:36:37.242Z,16.55
2023-06-23T13:39:04.625Z,13.45
2023-06-23T13:41:31.766Z,12.00
2023-06-23T13:43:58.893Z,13.57
2023-06-23T13:46:26.773Z,17.58
2023-06-23T13:48:53.984Z,13.18
2023-06-23T13:51:21.244Z,13.07
2023-06-23T13:53:48.305Z,10.82
2023-06-23T13:56:15.445Z,13.13
2023-06-23T13:58:42.697Z,18.85
2023-06-23T14:01:09.865Z,13.20
2023-06-23T14:03:37.097Z,14.80
2023-06-23T14:06:05.315Z,16.52
2023-06-23T14:08:35.139Z,11.98
2023-06-23T14:11:02.979Z,14.40
2023-06-23T14:13:30.082Z,13.48
2023-06-23T14:15:57.388Z,17.48
2023-06-23T14:18:24.888Z,20.73
2023-06-23T14:20:52.119Z,12.95
2023-06-23T14:23:19.314Z,15.57
2023-06-23T14:25:46.957Z,12.95
2023-06-23T14:28:14.258Z,13.35
2023-06-23T14:30:41.377Z,25.13
2023-06-23T14:33:09.948Z,15.70
2023-06-23T14:35:37.148Z,16.02
2023-06-23T14:38:07.979Z,16.10
2023-06-23T14:40:35.984Z,14.50
2023-06-23T14:43:04.253Z,14.55
2023-06-23T14:45:35.733Z,19.27
2023-06-23T14:48:03.090Z,14.45
2023-06-23T14:50:30.422Z,15.02
2023-06-23T14:52:57.838Z,14.23
2023-06-23T14:55:25.704Z,14.10
2023-06-23T14:57:54.434Z,16.85
2023-06-23T15:00:22.296Z,16.92
2023-06-23T15:02:49.459Z,28.25
2023-06-23T15:05:16.573Z,29.80
2023-06-23T15:07:43.825Z,26.63
2023-06-23T15:10:11.196Z,31.23
2023-06-23T15:12:38.257Z,29.52
2023-06-23T15:15:06.307Z,28.95
2023-06-23T15:17:33.653Z,24.77
2023-06-23T15:20:01.060Z,27.27
2023-06-23T15:22:28.464Z,24.05
2023-06-23T15:24:55.625Z,28.75
2023-06-23T15:27:23.114Z,31.90
2023-06-23T15:29:50.093Z,23.85
2023-06-23T15:32:17.484Z,26.95
2023-06-23T15:34:44.611Z,24.65
2023-06-23T15:37:11.912Z,23.70
2023-06-23T15:39:42.494Z,26.48
2023-06-23T15:42:12.896Z,27.23
2023-06-23T15:44:43.492Z,25.08
2023-06-23T15:47:10.796Z,24.73
2023-06-23T15:49:38.140Z,29.52
2023-06-23T15:52:06.690Z,24.77
2023-06-23T15:54:36.165Z,25.52
2023-06-23T15:57:04.044Z,21.23
2023-06-23T15:59:31.258Z,21.23
2023-06-23T16:01:58.382Z,22.20
2023-06-23T16:04:26.078Z,24.83
2023-06-23T16:06:53.696Z,26.58
2023-06-23T16:09:20.979Z,23.98
2023-06-23T16:11:48.347Z,24.15
2023-06-23T16:14:15.493Z,28.98
2023-06-23T16:16:42.774Z,22.00
2023-06-23T16:19:10.131Z,22.20
2023-06-23T16:21:37.404Z,25.83
2023-06-23T16:24:04.655Z,20.63
2023-06-23T16:26:32.244Z,26.80
2023-06-23T16:29:00.034Z,22.85
2023-06-23T16:31:27.142Z,19.65
2023-06-23T16:33:56.653Z,19.35
2023-06-23T16:36:25.755Z,25.63
2023-06-23T16:38:53.090Z,19.85
2023-06-23T16:41:20.942Z,30.00
2023-06-23T16:43:49.283Z,20.98
2023-06-23T16:46:16.703Z,22.35
2023-06-23T16:48:43.924Z,23.15
2023-06-23T16:51:11.283Z,20.73
2023-06-23T16:53:38.727Z,31.00
2023-06-23T16:56:08.010Z,27.95
2023-06-23T16:58:35.203Z,27.67
2023-06-23T17:01:02.614Z,30.35
2023-06-23T17:03:30.047Z,27.77
2023-06-23T17:05:57.418Z,25.25
2023-06-23T17:08:24.756Z,22.13
2023-06-23T17:10:51.823Z,25.75
2023-06-23T17:13:18.829Z,24.52
2023-06-23T17:15:46.041Z,26.20
2023-06-23T17:18:13.285Z,24.70
2023-06-23T17:20:40.465Z,22.98
2023-06-23T17:23:07.680Z,24.92
2023-06-23T17:25:35.172Z,21.13
2023-06-23T17:28:02.694Z,22.27
2023-06-23T17:30:29.907Z,24.67
2023-06-23T17:32:57.079Z,23.02
2023-06-23T17:35:24.265Z,24.98
2023-06-23T17:37:51.801Z,24.58
2023-06-23T17:40:25.791Z,25.80
2023-06-23T17:42:54.219Z,26.20
2023-06-23T17:45:21.726Z,28.13
2023-06-23T17:47:50.001Z,25.42
2023-06-23T17:50:17.718Z,29.83
2023-06-23T17:52:44.801Z,26.65
2023-06-23T17:55:11.997Z,25.75
2023-06-23T17:57:39.369Z,30.27
2023-06-23T18:00:07.670Z,56.15
2023-06-23T18:02:35.168Z,26.75
2023-06-23T18:05:02.666Z,25.25
2023-06-23T18:07:32.551Z,30.25
2023-06-23T18:09:59.873Z,31.00
2023-06-23T18:12:27.189Z,35.45
2023-06-23T18:14:54.414Z,40.63
2023-06-23T18:17:21.867Z,32.50
2023-06-23T18:19:49.023Z,36.55
2023-06-23T18:22:16.095Z,30.65
2023-06-23T18:24:43.214Z,32.45
2023-06-23T18:27:10.353Z,36.75
2023-06-23T18:29:37.506Z,39.67
2023-06-23T18:32:33.988Z,35.03
2023-06-23T18:35:02.511Z,33.75
2023-06-23T18:37:32.488Z,32.30
2023-06-23T18:39:59.928Z,37.80
2023-06-23T18:42:28.176Z,35.80
2023-06-23T18:44:55.498Z,36.30
2023-06-23T18:47:27.987Z,36.22
2023-06-23T18:49:55.461Z,39.17
2023-06-23T18:52:26.417Z,49.40
2023-06-23T18:54:54.927Z,49.25
2023-06-23T18:57:23.843Z,46.38
2023-06-23T18:59:51.617Z,56.20
2023-06-23T19:02:18.846Z,48.83
2023-06-23T19:04:46.015Z,42.72
2023-06-23T19:07:13.440Z,57.38
2023-06-23T19:09:40.772Z,56.97
2023-06-23T19:12:12.189Z,56.50
2023-06-23T19:14:39.465Z,59.22
2023-06-23T19:17:07.927Z,49.60
2023-06-23T19:19:38.881Z,49.78
2023-06-23T19:22:07.647Z,51.65
2023-06-23T19:24:38.554Z,54.40
2023-06-23T19:27:08.413Z,56.30
2023-06-23T19:32:03.451Z,55.33
2023-06-23T19:34:34.074Z,63.58
2023-06-23T19:39:29.619Z,59.75
2023-06-23T19:41:56.912Z,66.38
2023-06-23T19:44:26.171Z,72.18
2023-06-23T19:46:53.482Z,63.22
2023-06-23T19:49:20.483Z,67.53
2023-06-23T19:51:47.867Z,62.33
2023-06-23T19:54:15.083Z,65.75
2023-06-23T19:56:42.233Z,65.55
2023-06-23T19:59:09.330Z,66.72
2023-06-23T20:01:36.579Z,67.97
2023-06-23T20:04:03.970Z,65.32
2023-06-23T20:06:31.134Z,67.30
2023-06-23T20:08:58.429Z,63.28
2023-06-23T20:11:25.694Z,63.70
2023-06-23T20:13:52.754Z,62.95
2023-06-23T20:16:20.114Z,64.47
2023-06-23T20:18:47.520Z,65.28
2023-06-23T20:21:15.662Z,71.20
2023-06-23T20:23:42.819Z,63.20
2023-06-23T20:26:09.872Z,60.03
2023-06-23T20:28:37.050Z,62.10
2023-06-23T20:31:05.617Z,66.93
2023-06-23T20:33:33.264Z,70.38
2023-06-23T20:36:03.155Z,61.13
2023-06-23T20:38:30.475Z,60.92
2023-06-23T20:40:57.772Z,64.68
2023-06-23T20:43:26.575Z,70.32
2023-06-23T20:45:53.729Z,69.47
2023-06-23T20:48:21.522Z,60.83
2023-06-23T20:50:48.944Z,56.63
2023-06-23T20:53:16.217Z,62.78
2023-06-23T20:55:43.409Z,64.22
2023-06-23T20:58:10.776Z,66.88
2023-06-23T21:00:38.587Z,67.82
2023-06-23T21:03:06.061Z,65.28
2023-06-23T21:05:33.391Z,59.05
2023-06-23T21:08:00.699Z,57.88
2023-06-23T21:10:29.027Z,48.65
2023-06-23T21:12:57.140Z,46.50
2023-06-23T21:15:27.127Z,50.67
2023-06-23T21:17:55.022Z,53.95
2023-06-23T21:20:24.555Z,48.30
2023-06-23T21:22:52.114Z,46.00
2023-06-23T21:25:20.524Z,43.38
2023-06-23T21:27:51.159Z,42.47
2023-06-23T21:30:18.913Z,43.47
2023-06-23T21:32:46.468Z,44.03
2023-06-23T21:35:13.790Z,44.03
2023-06-23T21:37:43.382Z,41.28
2023-06-23T21:40:14.749Z,48.63
2023-06-23T21:42:42.198Z,39.08
2023-06-23T21:45:10.023Z,46.20
2023-06-23T21:47:37.328Z,39.67
2023-06-23T21:50:06.003Z,44.28
2023-06-23T21:52:34.359Z,41.83
2023-06-23T21:55:01.514Z,36.47
2023-06-23T21:57:30.628Z,40.88
2023-06-23T21:59:58.028Z,39.50
2023-06-23T22:02:25.325Z,40.75
2023-06-23T22:04:53.327Z,40.50
2023-06-23T22:07:22.760Z,43.88
2023-06-23T22:09:50.079Z,51.45
2023-06-23T22:12:17.299Z,41.08
2023-06-23T22:14:44.699Z,39.70
2023-06-23T22:17:11.714Z,40.63
2023-06-23T22:19:39.107Z,39.90
2023-06-23T22:22:06.378Z,41.65
2023-06-23T22:24:33.598Z,46.50
2023-06-23T22:27:00.878Z,44.90
2023-06-23T22:29:28.093Z,42.45
2023-06-23T22:31:55.556Z,41.80
2023-06-23T22:34:23.581Z,46.17
2023-06-23T22:36:50.857Z,43.38
2023-06-23T22:39:17.880Z,38.13
2023-06-23T22:41:45.040Z,42.75
2023-06-23T22:44:12.282Z,38.53
2023-06-23T22:46:39.509Z,39.10
2023-06-23T22:49:07.262Z,43.50
2023-06-23T22:51:34.373Z,44.75
2023-06-23T22:54:01.435Z,35.22
2023-06-23T22:56:28.798Z,32.65
2023-06-23T22:58:55.963Z,29.42
2023-06-23T23:01:24.771Z,30.65
2023-06-23T23:03:52.213Z,33.42
2023-06-23T23:06:19.596Z,30.58
2023-06-23T23:08:48.227Z,28.73
2023-06-23T23:11:15.586Z,31.33
2023-06-23T23:13:43.489Z,31.15
2023-06-23T23:16:10.705Z,27.98
2023-06-23T23:18:38.073Z,31.63
2023-06-23T23:21:05.429Z,30.23
2023-06-23T23:23:34.996Z,36.75
2023-06-23T23:26:03.094Z,29.08
2023-06-23T23:28:30.355Z,27.92
2023-06-23T23:31:00.170Z,32.22
2023-06-23T23:33:27.864Z,33.97
2023-06-23T23:36:03.281Z,32.53
2023-06-23T23:38:31.062Z,33.10
2023-06-23T23:40:59.355Z,33.00
2023-06-23T23:43:26.809Z,31.98
2023-06-23T23:45:54.192Z,27.85
2023-06-23T23:48:21.300Z,36.15
2023-06-23T23:50:48.570Z,32.28
2023-06-23T23:53:15.644Z,31.98
2023-06-23T23:55:42.830Z,28.10
2023-06-23T23:58:10.563Z,35.15
